Time;durP1;ratioP1;P1;durP2;ratioP2;P2;SDS_P1;SDS_P2;PMS_P1;PMS_P2;Temp;Humidity;BMP_temperature;BMP_pressure;BME280_temperature;BME280_humidity;BME280_pressure;Samples;Min_cycle;Max_cycle;Signal;HPM_P1;HPM_P2
2022/11/28 00:00:32;;;;;;;176.68;107.57;;;;;;;3.08;100.00;102137.47;5050821;28;20107;-86
2022/11/28 00:02:59;;;;;;;189.45;117.05;;;;;;;3.15;100.00;102136.03;5052279;28;20053;-85
2022/11/28 00:05:26;;;;;;;170.45;103.90;;;;;;;3.14;100.00;102137.81;5051185;28;20448;-83
2022/11/28 00:07:54;;;;;;;168.95;102.72;;;;;;;3.02;100.00;102143.22;5054311;28;20462;-83
2022/11/28 00:10:21;;;;;;;160.95;98.60;;;;;;;2.94;100.00;102144.66;5052033;28;20044;-86
2022/11/28 00:12:48;;;;;;;162.95;101.72;;;;;;;3.14;100.00;102148.31;5052527;28;20037;-86
2022/11/28 00:15:15;;;;;;;172.20;104.38;;;;;;;3.13;100.00;102144.03;5052595;28;20050;-86
2022/11/28 00:17:42;;;;;;;171.30;105.25;;;;;;;3.19;100.00;102148.78;5054723;28;20108;-83
2022/11/28 00:20:09;;;;;;;178.18;104.63;;;;;;;3.24;100.00;102152.81;5055800;28;20060;-83
2022/11/28 00:22:36;;;;;;;174.05;103.85;;;;;;;3.13;100.00;102144.03;5054776;28;20544;-84
2022/11/28 00:25:04;;;;;;;180.23;108.00;;;;;;;3.25;100.00;102139.59;5055289;28;20045;-84
2022/11/28 00:27:34;;;;;;;188.20;114.03;;;;;;;3.31;100.00;102138.28;5054888;28;20477;-87
2022/11/28 00:30:01;;;;;;;196.20;118.75;;;;;;;3.32;100.00;102140.75;5056331;28;20048;-87
2022/11/28 00:32:28;;;;;;;203.57;119.68;;;;;;;3.43;100.00;102145.97;5059795;28;20041;-87
2022/11/28 00:34:55;;;;;;;189.63;116.25;;;;;;;3.44;100.00;102138.94;5054410;28;20041;-84
2022/11/28 00:37:22;;;;;;;191.35;107.82;;;;;;;3.44;100.00;102139.75;5052495;28;20073;-84
2022/11/28 00:39:49;;;;;;;172.07;103.55;;;;;;;3.49;100.00;102142.03;5043275;28;20046;-84
2022/11/28 00:42:19;;;;;;;168.25;100.07;;;;;;;3.52;100.00;102133.06;5057218;28;20407;-86
2022/11/28 00:44:47;;;;;;;160.90;96.47;;;;;;;3.56;100.00;102134.47;5053773;28;20057;-87
2022/11/28 00:47:13;;;;;;;155.32;97.50;;;;;;;3.57;100.00;102129.13;5051332;28;20045;-83
2022/11/28 00:49:40;;;;;;;138.82;88.10;;;;;;;3.61;100.00;102127.06;5055080;28;20049;-86
2022/11/28 00:52:07;;;;;;;129.00;80.40;;;;;;;3.65;100.00;102126.66;5052191;28;20049;-83
2022/11/28 00:54:34;;;;;;;127.80;79.15;;;;;;;3.71;100.00;102129.75;5055458;28;20060;-83
2022/11/28 00:57:01;;;;;;;120.63;77.65;;;;;;;3.76;100.00;102125.78;5057657;28;20551;-83
2022/11/28 00:59:29;;;;;;;110.35;71.78;;;;;;;3.72;100.00;102123.53;5053551;28;20045;-84
2022/11/28 01:01:58;;;;;;;103.80;70.88;;;;;;;3.69;100.00;102119.34;5171053;22;20048;-87
2022/11/28 01:04:26;;;;;;;109.18;69.13;;;;;;;3.69;100.00;102121.97;5052764;28;20122;-86
2022/11/28 01:06:55;;;;;;;108.70;72.20;;;;;;;3.67;100.00;102121.31;5047242;28;20053;-83
2022/11/28 01:09:26;;;;;;;104.25;69.60;;;;;;;3.68;100.00;102110.66;5044509;28;20075;-88
2022/11/28 01:11:54;;;;;;;104.90;70.28;;;;;;;3.65;100.00;102117.94;5052130;28;20045;-84
2022/11/28 01:14:23;;;;;;;97.68;68.55;;;;;;;3.62;100.00;102112.94;5054278;28;20053;-84
2022/11/28 01:16:52;;;;;;;104.15;66.75;;;;;;;3.67;100.00;102114.25;5052775;28;20128;-84
2022/11/28 01:19:20;;;;;;;104.70;70.15;;;;;;;3.59;100.00;102108.78;5056336;28;20397;-87
2022/11/28 01:21:46;;;;;;;110.05;72.82;;;;;;;3.55;100.00;102107.38;5047456;28;20456;-84
2022/11/28 01:24:14;;;;;;;110.95;71.60;;;;;;;3.56;100.00;102109.03;5052941;28;20045;-83
2022/11/28 01:26:41;;;;;;;112.28;70.28;;;;;;;3.44;100.00;102104.78;5058572;28;20041;-87
2022/11/28 01:29:09;;;;;;;109.95;72.85;;;;;;;3.48;100.00;102092.22;5053007;28;20045;-86
2022/11/28 01:31:36;;;;;;;105.25;70.65;;;;;;;3.40;100.00;102098.13;5054891;28;20099;-84
2022/11/28 01:34:04;;;;;;;115.25;72.50;;;;;;;3.51;100.00;102086.72;5050437;28;20045;-83
2022/11/28 01:36:31;;;;;;;116.93;70.57;;;;;;;3.67;100.00;102092.41;5047448;28;20460;-84
2022/11/28 01:38:58;;;;;;;100.65;66.45;;;;;;;3.67;100.00;102090.59;5048197;28;20117;-83
2022/11/28 01:41:27;;;;;;;97.32;61.03;;;;;;;3.84;100.00;102088.34;5051491;28;20049;-85
2022/11/28 01:44:00;;;;;;;98.65;63.17;;;;;;;3.83;100.00;102092.78;5047652;28;20538;-84
2022/11/28 01:46:26;;;;;;;;;;;;;;;3.91;100.00;102084.25;5053697;28;20122;-83
2022/11/28 01:48:56;;;;;;;80.60;60.03;;;;;;;3.96;100.00;102084.69;5053135;28;19920;-83
2022/11/28 01:51:26;;;;;;;75.75;57.75;;;;;;;3.95;100.00;102080.41;5049972;28;20045;-86
2022/11/28 01:53:54;;;;;;;66.60;53.80;;;;;;;4.37;100.00;102085.59;5055541;28;20045;-85
2022/11/28 01:56:25;;;;;;;63.83;54.42;;;;;;;4.13;100.00;102080.66;5052935;28;20040;-85
2022/11/28 01:58:55;;;;;;;61.30;53.97;;;;;;;4.08;100.00;102081.03;5053238;28;20052;-86
2022/11/28 02:01:24;;;;;;;64.78;54.35;;;;;;;4.07;100.00;102079.38;5055894;28;20063;-85
2022/11/28 02:03:51;;;;;;;70.07;58.28;;;;;;;4.08;100.00;102082.81;5074545;28;20127;-85
2022/11/28 02:06:22;;;;;;;63.28;55.40;;;;;;;4.05;100.00;102076.03;5069051;28;20048;-86
2022/11/28 02:08:52;;;;;;;70.15;59.33;;;;;;;4.09;100.00;102074.81;5070477;28;20057;-83
2022/11/28 02:11:40;;;;;;;64.47;57.47;;;;;;;3.99;100.00;102076.53;5072828;28;20067;-85
2022/11/28 02:14:15;;;;;;;69.18;60.72;;;;;;;3.95;100.00;102074.31;5067222;28;20036;-83
2022/11/28 02:16:56;;;;;;;64.43;57.65;;;;;;;4.02;100.00;102076.28;5074620;28;20118;-84
2022/11/28 02:19:49;;;;;;;65.53;58.50;;;;;;;4.01;100.00;102077.25;5071675;28;20055;-82
2022/11/28 02:22:23;;;;;;;68.80;61.58;;;;;;;3.96;100.00;102073.34;5071596;28;20060;-87
2022/11/28 02:25:18;;;;;;;70.93;63.53;;;;;;;3.95;100.00;102080.41;5067800;28;20115;-83
2022/11/28 02:28:04;;;;;;;69.85;62.67;;;;;;;3.89;100.00;102080.91;5068345;28;20074;-83
2022/11/28 02:30:41;;;;;;;66.88;59.92;;;;;;;3.86;100.00;102073.28;5069466;28;20056;-87
2022/11/28 02:33:16;;;;;;;64.03;57.33;;;;;;;3.82;100.00;102074.53;5071706;28;20041;-85
2022/11/28 02:35:55;;;;;;;65.30;58.55;;;;;;;3.82;100.00;102074.53;5073355;28;20041;-85
2022/11/28 02:38:38;;;;;;;73.68;66.53;;;;;;;3.82;100.00;102075.34;5074334;28;20063;-86
2022/11/28 02:41:15;;;;;;;68.40;61.33;;;;;;;3.81;100.00;102071.06;5073739;28;20362;-84
2022/11/28 02:43:51;;;;;;;66.28;59.80;;;;;;;3.85;100.00;102075.09;5072818;28;20048;-87
2022/11/28 02:46:26;;;;;;;66.53;60.15;;;;;;;3.88;100.00;102079.25;5071438;28;20189;-82
2022/11/28 02:48:58;;;;;;;66.82;60.33;;;;;;;3.85;100.00;102077.72;5075513;28;20044;-87
2022/11/28 02:51:31;;;;;;;67.82;60.92;;;;;;;3.82;100.00;102077.97;5073638;28;20106;-86
2022/11/28 02:53:59;;;;;;;63.92;57.17;;;;;;;3.81;100.00;102075.47;5073787;28;20049;-85
2022/11/28 02:56:26;;;;;;;71.03;64.55;;;;;;;3.76;100.00;102080.28;5075268;28;20040;-84
2022/11/28 02:58:53;;;;;;;67.30;60.63;;;;;;;3.74;100.00;102090.91;5075009;28;20530;-85
2022/11/28 03:01:24;;;;;;;64.47;57.97;;;;;;;3.73;100.00;102088.44;5064142;28;20060;-85
2022/11/28 03:04:31;;;;;;;63.88;57.80;;;;;;;3.72;100.00;102086.75;5069196;28;20144;-83
2022/11/28 03:07:09;;;;;;;66.30;60.03;;;;;;;3.71;100.00;102085.91;4994039;28;20042;-86
2022/11/28 03:09:56;;;;;;;63.17;56.95;;;;;;;3.67;100.00;102090.59;4993304;28;20073;-88
2022/11/28 03:12:31;;;;;;;66.35;59.72;;;;;;;3.67;100.00;102090.59;5048742;28;20080;-87
2022/11/28 03:15:02;;;;;;;67.88;61.47;;;;;;;3.62;100.00;102091.94;5072101;28;20067;-86
2022/11/28 03:17:38;;;;;;;64.15;58.05;;;;;;;3.64;100.00;102088.22;5075412;28;20123;-87
2022/11/28 03:20:28;;;;;;;66.70;60.15;;;;;;;3.68;100.00;102094.06;5072933;28;20118;-83
2022/11/28 03:23:06;;;;;;;61.63;55.20;;;;;;;3.62;100.00;102087.50;5066006;28;20045;-85
2022/11/28 03:25:38;;;;;;;56.83;51.00;;;;;;;3.62;100.00;102089.31;5063660;28;20362;-86
2022/11/28 03:28:11;;;;;;;63.20;56.50;;;;;;;3.58;100.00;102082.66;5075614;28;20530;-84
2022/11/28 03:30:44;;;;;;;62.28;56.08;;;;;;;3.58;100.00;102085.28;5071334;28;20041;-87
2022/11/28 03:33:14;;;;;;;65.10;58.47;;;;;;;3.53;100.00;102090.91;5071462;28;20048;-84
2022/11/28 03:35:47;;;;;;;59.97;54.17;;;;;;;3.56;100.00;102084.56;5080960;28;20048;-85
2022/11/28 03:38:21;;;;;;;61.47;54.97;;;;;;;3.52;100.00;102089.25;5075699;28;20438;-83
2022/11/28 03:40:52;;;;;;;60.85;54.53;;;;;;;3.51;100.00;102084.94;5069273;28;20189;-84
2022/11/28 03:43:25;;;;;;;58.28;52.55;;;;;;;3.52;100.00;102088.41;5073822;28;20109;-85
2022/11/28 03:45:58;;;;;;;62.83;56.28;;;;;;;3.47;100.00;102090.56;5074288;28;20102;-84
2022/11/28 03:48:30;;;;;;;59.60;53.75;;;;;;;3.49;100.00;102094.75;5064206;28;20070;-86
2022/11/28 03:51:05;;;;;;;58.95;53.05;;;;;;;3.51;100.00;102094.59;5077419;28;20040;-83
2022/11/28 03:53:42;;;;;;;57.95;52.40;;;;;;;3.50;100.00;102101.66;5076142;28;20481;-83
2022/11/28 03:56:14;;;;;;;61.03;54.83;;;;;;;3.46;100.00;102100.25;5072089;28;20538;-86
2022/11/28 03:58:48;;;;;;;62.15;56.20;;;;;;;3.43;100.00;102101.31;5070306;28;20044;-85
2022/11/28 04:01:30;;;;;;;62.83;56.60;;;;;;;3.41;100.00;102087.47;5073541;28;20049;-84
2022/11/28 04:04:09;;;;;;;59.05;53.28;;;;;;;3.42;100.00;102094.41;5075469;28;20040;-85
2022/11/28 04:06:51;;;;;;;55.97;50.85;;;;;;;3.41;100.00;102094.53;5074759;28;20110;-84
2022/11/28 04:09:21;;;;;;;57.33;51.67;;;;;;;3.38;100.00;102100.84;5077960;28;20053;-84
2022/11/28 04:11:53;;;;;;;59.75;54.22;;;;;;;3.32;100.00;102097.91;5073410;28;20456;-87
2022/11/28 04:14:24;;;;;;;67.28;60.67;;;;;;;3.34;100.00;102099.44;5077051;28;20053;-86
2022/11/28 04:16:54;;;;;;;67.32;57.83;;;;;;;3.33;100.00;102107.44;5065249;28;20103;-85
2022/11/28 04:19:28;;;;;;;60.28;54.17;;;;;;;3.32;100.00;102103.97;5074203;28;20045;-86
2022/11/28 04:22:02;;;;;;;68.22;57.92;;;;;;;3.27;100.00;102114.06;5074144;28;20090;-85
2022/11/28 04:24:35;;;;;;;61.25;55.38;;;;;;;3.31;100.00;102106.75;5072721;28;20127;-85
2022/11/28 04:27:06;;;;;;;59.95;53.78;;;;;;;3.29;100.00;102113.91;5074490;28;20052;-85
2022/11/28 04:29:38;;;;;;;61.65;55.80;;;;;;;3.27;100.00;102114.06;5068255;28;20106;-84
2022/11/28 04:32:06;;;;;;;64.38;58.03;;;;;;;3.22;100.00;102117.03;5075139;28;20053;-85
2022/11/28 04:34:35;;;;;;;65.22;58.92;;;;;;;3.24;100.00;102108.19;5071129;28;20530;-85
2022/11/28 04:37:06;;;;;;;61.50;55.30;;;;;;;3.20;100.00;102111.06;5075685;28;20055;-85
2022/11/28 04:39:35;;;;;;;58.42;52.92;;;;;;;3.13;100.00;102111.69;5079414;28;20366;-83
2022/11/28 04:42:09;;;;;;;58.33;52.33;;;;;;;3.16;100.00;102108.81;5074627;28;20041;-87
2022/11/28 04:44:40;;;;;;;60.05;53.72;;;;;;;3.13;100.00;102107.28;5073688;28;20111;-85
2022/11/28 04:47:11;;;;;;;60.17;54.15;;;;;;;3.04;100.00;102112.44;5076054;28;20048;-88
2022/11/28 04:49:40;;;;;;;60.40;53.90;;;;;;;3.19;100.00;102116.44;5075180;28;20049;-84
2022/11/28 04:52:13;;;;;;;59.83;54.03;;;;;;;3.08;100.00;102111.22;5080225;28;20460;-87
2022/11/28 04:54:46;;;;;;;56.80;50.35;;;;;;;3.06;100.00;102118.41;5071221;28;20480;-86
2022/11/28 04:57:17;;;;;;;62.15;55.15;;;;;;;3.19;100.00;102116.44;5083103;28;20056;-83
2022/11/28 04:59:44;;;;;;;61.22;54.58;;;;;;;3.17;100.00;102119.19;5075900;28;20401;-84
2022/11/28 05:02:14;;;;;;;60.72;54.08;;;;;;;3.18;100.00;102115.63;5073847;28;20056;-86
2022/11/28 05:04:43;;;;;;;60.85;54.38;;;;;;;3.12;100.00;102115.28;5068369;28;20064;-83
2022/11/28 05:07:11;;;;;;;54.80;49.05;;;;;;;2.90;100.00;102114.34;5077722;28;20055;-83
2022/11/28 05:09:38;;;;;;;54.28;48.35;;;;;;;2.97;100.00;102122.59;5076784;28;20499;-87
2022/11/28 05:12:05;;;;;;;58.75;49.80;;;;;;;2.94;100.00;102126.28;5071359;28;20068;-83
2022/11/28 05:14:32;;;;;;;56.20;49.08;;;;;;;3.06;100.00;102136.78;5073697;28;20045;-86
2022/11/28 05:16:59;;;;;;;58.65;52.17;;;;;;;3.00;100.00;102126.75;5070066;28;20036;-84
2022/11/28 05:19:26;;;;;;;60.30;51.20;;;;;;;3.10;100.00;102132.94;5076774;28;20099;-84
2022/11/28 05:21:53;;;;;;;57.67;50.50;;;;;;;3.07;100.00;102128.75;5075070;28;20045;-83
2022/11/28 05:24:21;;;;;;;56.53;50.42;;;;;;;3.07;100.00;102128.75;5066376;28;20852;-84
2022/11/28 05:26:50;;;;;;;54.03;47.67;;;;;;;3.10;100.00;102133.78;5086168;28;20082;-86
2022/11/28 05:29:17;;;;;;;78.63;61.05;;;;;;;3.22;100.00;102132.78;5072763;28;20106;-85
2022/11/28 05:31:44;;;;;;;105.60;75.57;;;;;;;3.25;100.00;102134.34;5073171;28;20036;-83
2022/11/28 05:34:10;;;;;;;64.32;53.50;;;;;;;3.21;100.00;102136.38;5075358;28;20052;-85
2022/11/28 05:36:38;;;;;;;75.18;62.90;;;;;;;3.38;100.00;102144.69;5076518;28;20115;-87
2022/11/28 05:39:05;;;;;;;73.00;62.83;;;;;;;3.39;100.00;102139.31;5069358;28;20045;-84
2022/11/28 05:41:33;;;;;;;67.28;59.90;;;;;;;3.37;100.00;102137.78;5073684;28;20055;-83
2022/11/28 05:44:01;;;;;;;62.03;51.90;;;;;;;3.44;100.00;102142.38;5074530;28;20059;-86
2022/11/28 05:46:29;;;;;;;59.50;53.03;;;;;;;3.30;100.00;102131.31;5074636;28;20056;-85
2022/11/28 05:48:56;;;;;;;56.75;50.85;;;;;;;3.34;100.00;102143.28;5071159;28;20465;-83
2022/11/28 05:51:23;;;;;;;63.25;50.75;;;;;;;3.35;100.00;102142.31;5074840;28;20048;-84
2022/11/28 05:53:50;;;;;;;75.97;59.58;;;;;;;3.27;100.00;102139.44;5065632;28;20043;-83
2022/11/28 05:56:19;;;;;;;72.88;60.70;;;;;;;3.39;100.00;102143.75;5073746;28;20056;-87
2022/11/28 05:58:47;;;;;;;69.65;59.63;;;;;;;3.39;100.00;102149.81;5063919;28;20452;-84
2022/11/28 06:01:16;;;;;;;64.95;57.17;;;;;;;3.40;100.00;102154.13;5069075;28;20049;-84
2022/11/28 06:03:43;;;;;;;167.82;111.10;;;;;;;3.46;100.00;102159.84;5073510;28;20048;-86
2022/11/28 06:06:13;;;;;;;73.20;62.17;;;;;;;3.59;100.00;102155.25;5075614;28;20045;-87
2022/11/28 06:08:40;;;;;;;63.97;57.03;;;;;;;3.59;100.00;102158.69;5075185;28;20051;-88
2022/11/28 06:11:08;;;;;;;64.05;57.33;;;;;;;3.66;100.00;102165.16;5070864;28;20052;-86
2022/11/28 06:13:34;;;;;;;61.80;55.00;;;;;;;3.68;100.00;102165.84;5074251;28;20045;-84
2022/11/28 06:16:03;;;;;;;73.68;58.47;;;;;;;3.68;100.00;102163.19;5071709;28;20185;-84
2022/11/28 06:18:29;;;;;;;65.05;54.58;;;;;;;3.62;100.00;102165.50;5074281;28;20048;-86
2022/11/28 06:20:56;;;;;;;71.18;55.65;;;;;;;3.68;100.00;102171.09;5070715;28;20045;-86
2022/11/28 06:23:24;;;;;;;67.00;55.97;;;;;;;3.74;100.00;102168.94;5071053;28;20056;-86
2022/11/28 06:25:51;;;;;;;61.80;53.72;;;;;;;3.81;100.00;102165.69;5070478;28;20113;-84
2022/11/28 06:28:18;;;;;;;52.65;47.53;;;;;;;3.77;100.00;102171.31;5066751;28;20078;-88
2022/11/28 06:30:45;;;;;;;55.65;50.03;;;;;;;3.69;100.00;102164.03;5026250;28;20053;-84
2022/11/28 06:33:13;;;;;;;52.53;47.13;;;;;;;3.71;100.00;102159.50;5072337;28;20408;-84
2022/11/28 06:35:40;;;;;;;53.00;47.53;;;;;;;3.69;100.00;102153.53;5072834;28;20055;-86
2022/11/28 06:38:07;;;;;;;51.15;46.00;;;;;;;3.67;100.00;102156.28;5074033;28;20044;-84
2022/11/28 06:40:34;;;;;;;53.25;47.78;;;;;;;3.76;100.00;102151.25;5068047;28;20102;-84
2022/11/28 06:43:00;;;;;;;52.78;47.47;;;;;;;3.72;100.00;102147.19;5069264;28;20049;-84
2022/11/28 06:45:28;;;;;;;51.45;46.15;;;;;;;3.80;100.00;102152.66;5069376;28;20048;-87
2022/11/28 06:47:55;;;;;;;53.63;48.17;;;;;;;3.71;100.00;102151.63;5059600;28;20037;-84
2022/11/28 06:50:23;;;;;;;54.83;48.70;;;;;;;3.81;100.00;102151.69;5073218;28;20036;-83
2022/11/28 06:52:50;;;;;;;56.65;51.08;;;;;;;3.78;100.00;102137.03;5071659;28;20485;-83
2022/11/28 06:55:17;;;;;;;53.22;47.63;;;;;;;3.75;100.00;102139.91;5075138;28;20044;-86
2022/11/28 06:57:44;;;;;;;57.80;52.03;;;;;;;3.80;100.00;102147.41;5068679;28;20068;-83
2022/11/28 07:00:12;;;;;;;56.22;50.85;;;;;;;3.77;100.00;102143.22;5069178;28;20061;-83
2022/11/28 07:02:39;;;;;;;56.92;51.28;;;;;;;3.89;100.00;102139.56;5068112;28;20060;-83
2022/11/28 07:05:06;;;;;;;56.38;50.90;;;;;;;3.97;100.00;102144.22;5071384;28;20066;-85
2022/11/28 07:07:34;;;;;;;54.40;48.83;;;;;;;3.85;100.00;102139.97;5076036;28;20040;-85
2022/11/28 07:10:01;;;;;;;56.75;51.33;;;;;;;3.87;100.00;102143.28;5066279;28;20049;-87
2022/11/28 07:12:28;;;;;;;54.50;49.17;;;;;;;3.95;100.00;102145.28;5065436;28;20099;-83
2022/11/28 07:14:55;;;;;;;55.72;50.28;;;;;;;3.97;100.00;102146.00;5069248;28;20492;-84
2022/11/28 07:17:21;;;;;;;56.50;50.90;;;;;;;4.08;100.00;102143.31;5069202;28;20049;-84
2022/11/28 07:19:48;;;;;;;58.95;52.75;;;;;;;4.13;100.00;102134.06;5068734;28;20044;-86
2022/11/28 07:22:15;;;;;;;57.53;51.97;;;;;;;4.20;100.00;102130.91;5069693;28;20068;-86
2022/11/28 07:24:43;;;;;;;56.08;50.28;;;;;;;4.28;100.00;102133.75;5072440;28;20049;-85
2022/11/28 07:27:10;;;;;;;58.17;52.22;;;;;;;4.25;100.00;102129.56;5082215;28;20056;-85
2022/11/28 07:29:38;;;;;;;55.15;49.38;;;;;;;4.50;100.00;102127.47;5082498;28;20120;-83
2022/11/28 07:32:06;;;;;;;57.30;51.58;;;;;;;4.50;100.00;102125.69;5078222;28;20396;-83
2022/11/28 07:34:33;;;;;;;54.92;49.70;;;;;;;4.67;100.00;102108.44;5068664;28;20123;-84
2022/11/28 07:37:00;;;;;;;61.30;55.47;;;;;;;4.76;100.00;102110.28;5072990;28;20109;-84
2022/11/28 07:39:27;;;;;;;56.90;51.65;;;;;;;4.81;100.00;102115.13;5068087;28;20049;-86
2022/11/28 07:41:55;;;;;;;54.53;49.42;;;;;;;5.02;100.00;102115.03;5074859;28;20048;-87
2022/11/28 07:44:22;;;;;;;54.55;49.75;;;;;;;5.07;100.00;102115.47;5075327;28;20080;-83
2022/11/28 07:46:48;;;;;;;60.10;54.15;;;;;;;5.17;100.00;102108.41;5071720;28;20543;-84
2022/11/28 07:49:15;;;;;;;55.05;49.97;;;;;;;5.38;100.00;102107.47;5072509;28;20113;-87
2022/11/28 07:51:42;;;;;;;57.83;52.78;;;;;;;5.45;100.00;102096.25;5087888;28;20051;-87
2022/11/28 07:54:09;;;;;;;61.25;55.55;;;;;;;5.10;100.00;102093.31;5079371;28;20484;-86
2022/11/28 07:56:38;;;;;;;57.75;52.55;;;;;;;4.94;100.00;102092.03;5071647;28;20106;-86
2022/11/28 07:59:07;;;;;;;57.72;52.25;;;;;;;4.97;100.00;102101.47;5082535;28;20045;-84
2022/11/28 08:01:35;;;;;;;55.72;50.47;;;;;;;4.79;100.00;102090.75;5078978;28;20475;-85
2022/11/28 08:04:04;;;;;;;56.00;50.83;;;;;;;4.96;100.00;102094.50;5076122;28;20378;-88
2022/11/28 08:06:32;;;;;;;58.38;53.03;;;;;;;5.14;100.00;102092.88;5072543;28;21475;-86
2022/11/28 08:09:01;;;;;;;54.00;49.53;;;;;;;8.50;100.00;102081.75;5075343;28;20051;-82
2022/11/28 08:11:29;;;;;;;56.42;51.80;;;;;;;6.32;100.00;102079.44;5080284;28;20130;-83
2022/11/28 08:13:57;;;;;;;70.00;62.92;;;;;;;5.74;100.00;102083.03;5080266;28;20044;-87
2022/11/28 08:16:28;;;;;;;57.50;52.15;;;;;;;5.47;100.00;102085.56;5074344;28;20533;-85
2022/11/28 08:18:56;;;;;;;55.83;50.80;;;;;;;5.74;100.00;102090.94;5068256;28;20049;-86
2022/11/28 08:21:24;;;;;;;58.35;52.95;;;;;;;5.77;100.00;102089.00;5087977;28;20049;-85
2022/11/28 08:23:54;;;;;;;55.25;50.25;;;;;;;5.53;100.00;102089.44;5078747;28;20040;-87
2022/11/28 08:26:23;;;;;;;54.85;49.95;;;;;;;5.99;100.00;102079.97;5075550;28;20044;-85
2022/11/28 08:28:52;;;;;;;53.63;48.65;;;;;;;6.39;100.00;102088.47;5069387;28;20045;-85
2022/11/28 08:31:21;;;;;;;53.15;48.55;;;;;;;6.78;100.00;102085.66;5074194;28;20076;-85
2022/11/28 08:33:51;;;;;;;53.88;48.97;;;;;;;6.35;100.00;102092.34;5074510;28;20083;-83
2022/11/28 08:36:19;;;;;;;55.40;50.47;;;;;;;6.47;100.00;102086.91;5068593;28;20047;-83
2022/11/28 08:38:47;;;;;;;59.95;54.80;;;;;;;5.93;100.00;102084.88;5065106;28;20095;-87
2022/11/28 08:41:16;;;;;;;59.60;54.03;;;;;;;5.98;100.00;102073.88;5078479;28;20059;-85
2022/11/28 08:43:43;;;;;;;58.15;52.83;;;;;;;5.92;100.00;102079.69;5079476;28;20048;-85
2022/11/28 08:46:11;;;;;;;59.75;54.33;;;;;;;6.06;100.00;102065.25;5069895;28;20118;-84
2022/11/28 08:48:38;;;;;;;63.53;56.42;;;;;;;6.16;100.00;102073.97;5070181;28;20052;-85
2022/11/28 08:51:08;;;;;;;56.97;51.92;;;;;;;6.38;100.00;102072.78;5084460;28;20051;-84
2022/11/28 08:53:35;;;;;;;56.40;51.40;;;;;;;6.10;100.00;102078.00;5079129;28;20044;-84
2022/11/28 08:56:02;;;;;;;58.33;52.92;;;;;;;6.06;100.00;102067.91;5075438;28;20052;-88
2022/11/28 08:58:30;;;;;;;55.35;50.47;;;;;;;6.18;100.00;102069.38;5075789;28;20052;-87
2022/11/28 09:00:56;;;;;;;55.25;50.33;;;;;;;5.88;100.00;102063.31;5072486;28;20044;-88
2022/11/28 09:03:24;;;;;;;57.88;52.08;;;;;;;5.57;100.00;102073.22;5071710;28;20487;-84
2022/11/28 09:05:52;;;;;;;58.83;53.30;;;;;;;5.61;100.00;102064.06;5079823;28;20041;-86
2022/11/28 09:08:21;;;;;;;59.72;54.42;;;;;;;6.02;100.00;102061.22;5075628;28;20158;-88
2022/11/28 09:10:48;;;;;;;62.78;56.47;;;;;;;5.57;100.00;102065.31;5079297;28;20496;-85
2022/11/28 09:13:15;;;;;;;66.13;59.42;;;;;;;5.33;100.00;102065.75;5075797;28;20065;-83
2022/11/28 09:15:43;;;;;;;63.67;57.33;;;;;;;5.51;100.00;102060.59;5078284;28;20106;-83
2022/11/28 09:18:12;;;;;;;63.17;56.83;;;;;;;5.46;100.00;102052.28;5074853;28;20221;-86
2022/11/28 09:20:40;;;;;;;63.15;56.60;;;;;;;5.54;100.00;102044.50;5083320;28;20048;-86
2022/11/28 09:23:08;;;;;;;64.53;57.75;;;;;;;5.46;100.00;102047.84;5076088;28;20051;-84
2022/11/28 09:25:38;;;;;;;57.92;51.85;;;;;;;5.58;100.00;102035.34;5066632;28;20388;-83
2022/11/28 09:28:05;;;;;;;61.83;55.58;;;;;;;5.64;100.00;102041.84;5061705;28;20546;-85
2022/11/28 09:30:32;;;;;;;64.47;57.92;;;;;;;5.43;100.00;102036.75;5068108;28;20045;-84
2022/11/28 09:32:58;;;;;;;60.67;54.65;;;;;;;5.32;100.00;102042.97;5080297;28;20110;-83
2022/11/28 09:35:25;;;;;;;63.38;56.78;;;;;;;5.44;100.00;102036.59;5077646;28;20110;-82
2022/11/28 09:37:53;;;;;;;63.20;56.17;;;;;;;5.39;100.00;102036.19;5061819;28;20045;-83
2022/11/28 09:40:25;;;;;;;58.97;53.05;;;;;;;5.56;100.00;102034.66;5059278;28;20070;-87
2022/11/28 09:42:53;;;;;;;63.72;57.00;;;;;;;5.25;100.00;102026.91;5067702;28;20053;-86
2022/11/28 09:45:23;;;;;;;61.67;55.53;;;;;;;5.45;100.00;102022.47;5082244;28;20043;-84
2022/11/28 09:47:53;;;;;;;61.28;55.08;;;;;;;5.39;100.00;102024.84;5064387;28;20412;-88
2022/11/28 09:50:24;;;;;;;61.97;55.75;;;;;;;5.40;100.00;102015.94;5079033;28;20047;-83
2022/11/28 09:52:58;;;;;;;61.10;54.67;;;;;;;5.42;100.00;102022.75;5084766;28;20043;-87
2022/11/28 09:55:34;;;;;;;56.83;51.30;;;;;;;6.36;100.00;102016.69;5071142;28;20036;-88
2022/11/28 09:58:11;;;;;;;64.63;57.80;;;;;;;5.63;100.00;102019.94;5075688;28;20041;-84
2022/11/28 10:00:46;;;;;;;60.72;54.83;;;;;;;7.15;100.00;102018.66;5083504;28;20051;-84
2022/11/28 10:03:35;;;;;;;64.32;57.70;;;;;;;6.05;100.00;102006.41;5081041;28;20462;-88
2022/11/28 10:06:12;;;;;;;62.88;56.60;;;;;;;5.69;100.00;102002.75;5071294;28;20094;-82
2022/11/28 10:08:52;;;;;;;62.83;56.22;;;;;;;5.86;100.00;101990.59;5073405;28;20071;-86
2022/11/28 10:11:36;;;;;;;60.90;54.72;;;;;;;6.24;100.00;101979.09;5075837;28;20047;-84
2022/11/28 10:14:13;;;;;;;59.35;53.78;;;;;;;6.58;100.00;101984.59;5066299;28;20049;-83
2022/11/28 10:16:50;;;;;;;60.65;54.58;;;;;;;6.25;100.00;101979.94;5064831;28;20045;-83
2022/11/28 10:19:21;;;;;;;60.10;53.95;;;;;;;6.22;100.00;101967.84;5081515;28;20052;-83
2022/11/28 10:21:51;;;;;;;60.88;54.30;;;;;;;6.49;100.00;101968.81;5080477;28;20052;-85
2022/11/28 10:24:23;;;;;;;60.88;54.95;;;;;;;6.91;100.00;101970.91;5079453;28;20117;-84
2022/11/28 10:26:53;;;;;;;63.97;57.75;;;;;;;6.27;100.00;101972.72;5070480;28;20052;-85
2022/11/28 10:29:26;;;;;;;59.80;53.85;;;;;;;6.25;100.00;101970.19;5077599;28;20048;-82
2022/11/28 10:31:57;;;;;;;58.92;52.70;;;;;;;6.30;100.00;101972.41;5068394;28;20052;-84
2022/11/28 10:34:29;;;;;;;59.45;53.35;;;;;;;6.31;100.00;101968.78;5063825;28;20132;-87
2022/11/28 10:37:01;;;;;;;63.38;56.55;;;;;;;6.39;100.00;101966.25;5070293;28;20128;-87
2022/11/28 10:39:28;;;;;;;62.47;55.80;;;;;;;6.49;100.00;101963.53;5068035;28;20132;-84
2022/11/28 10:42:12;;;;;;;60.42;54.38;;;;;;;7.13;100.00;101951.09;5072812;28;20455;-83
2022/11/28 10:45:06;;;;;;;60.92;54.58;;;;;;;7.23;100.00;101947.41;5060351;28;20048;-86
2022/11/28 10:48:01;;;;;;;58.63;52.75;;;;;;;7.10;100.00;101942.47;5075266;28;20041;-85
2022/11/28 10:50:37;;;;;;;62.58;55.50;;;;;;;6.99;100.00;101945.38;5066967;28;20473;-88
2022/11/28 10:53:12;;;;;;;60.40;54.20;;;;;;;7.36;100.00;101941.69;5067108;28;20052;-82
2022/11/28 10:55:52;;;;;;;59.17;53.05;;;;;;;7.38;100.00;101942.34;5071108;28;20044;-84
2022/11/28 10:58:23;;;;;;;58.25;52.58;;;;;;;7.41;100.00;101943.88;5081065;28;20114;-83
2022/11/28 11:00:54;;;;;;;59.85;53.67;;;;;;;7.07;100.00;101941.97;5065049;28;20452;-83
2022/11/28 11:03:27;;;;;;;59.70;53.75;;;;;;;7.05;100.00;101942.13;5075429;28;20109;-86
2022/11/28 11:05:54;;;;;;;56.22;50.47;;;;;;;6.76;100.00;101938.91;5077607;28;20485;-86
2022/11/28 11:08:22;;;;;;;53.47;48.33;;;;;;;8.01;100.00;101926.16;5076154;28;20514;-86
2022/11/28 11:10:51;;;;;;;58.03;52.40;;;;;;;7.51;100.00;101928.75;5074721;28;20047;-84
2022/11/28 11:13:21;;;;;;;65.13;58.10;;;;;;;7.13;100.00;101925.50;5082437;28;20430;-86
2022/11/28 11:15:51;;;;;;;59.05;53.15;;;;;;;6.56;100.00;101925.81;5074486;28;20137;-86
2022/11/28 11:18:25;;;;;;;58.88;53.08;;;;;;;6.69;100.00;101921.97;5068643;28;20214;-83
2022/11/28 11:20:52;;;;;;;56.63;50.70;;;;;;;6.69;100.00;101920.19;5081380;28;20052;-83